Catàleg de serveis del Meteocat
Campanya meteocatpedra

Dades de l'estació automàtica el Masroig

?
?
Resum diari 21:00 TU
Dades diàries de l'estació meteorològica
Temperatura mitjana 21.3 °C
Temperatura màxima 28.1 °C 13:13 TU
Temperatura mínima 16.7 °C 5:05 TU
Humitat relativa mitjana 81%
Precipitació acumulada 11.6 mm
Ratxa màxima del vent (2 m) 26.3 km/h - 290º 4:45 TU

El tram horari està expressat en Temps Universal (TU). Cal sumar una hora en horari d'hivern i dues en horari d'estiu per passar a l'hora oficial.

el Masroig

Metadades estació meteorol´gica
Municipi El Masroig
Comarca Priorat
Altitud 141 m
Data alta 20.06.2000
Estat actual Operativa
Dades de període
Període
TU
TM
°C
TX
°C
TN
°C
HRM
%
PPT
mm
VVM (2 m)
km/h
DVM (2 m)
graus
VVX (2 m)
km/h
00:00 - 00:30 21.2 21.2 21.1 75 0.0 9.4 110 21.2
00:30 - 01:00 21.2 21.2 21.2 76 0.0 9.7 107 17.6
01:00 - 01:30 21.0 21.2 20.6 76 0.0 3.6 114 9.4
01:30 - 02:00 20.5 21.0 20.3 79 0.0 3.2 26 11.2
02:00 - 02:30 21.1 21.2 21.0 76 0.0 9.0 95 19.4
02:30 - 03:00 21.1 21.2 20.9 76 0.0 10.1 103 18.7
03:00 - 03:30 21.0 21.0 20.9 76 0.0 10.4 104 17.6
03:30 - 04:00 20.9 21.0 20.8 77 0.0 9.7 100 20.2
04:00 - 04:30 21.1 21.1 20.9 75 0.0 8.3 112 18.7
04:30 - 05:00 20.0 21.4 16.9 81 10.5 9.7 147 26.3
05:00 - 05:30 16.8 17.0 16.7 96 1.1 9.0 96 19.1
05:30 - 06:00 17.0 17.2 16.9 94 0.0 3.2 95 8.3
06:00 - 06:30 16.9 17.0 16.9 95 0.0 3.6 81 8.6
06:30 - 07:00 16.9 17.0 16.9 96 0.0 2.9 108 7.6
07:00 - 07:30 17.0 17.1 16.9 96 0.0 2.5 103 6.5
07:30 - 08:00 17.2 17.4 17.1 97 0.0 1.8 111 5.8
08:00 - 08:30 17.7 18.0 17.4 97 0.0 2.9 117 7.9
08:30 - 09:00 18.4 18.8 18.0 95 0.0 1.4 112 5.8
09:00 - 09:30 19.3 19.6 18.8 92 0.0 2.2 183 7.2
09:30 - 10:00 19.7 20.1 19.5 91 0.0 4.7 278 14.0
10:00 - 10:30 20.7 21.6 20.2 85 0.0 3.6 244 11.2
10:30 - 11:00 22.7 23.9 21.9 77 0.0 2.2 307 8.3
11:00 - 11:30 24.2 24.5 23.9 73 0.0 3.6 281 10.4
11:30 - 12:00 24.9 25.8 24.0 71 0.0 4.3 271 12.6
12:00 - 12:30 25.5 26.5 24.8 69 0.0 3.6 269 9.0
12:30 - 13:00 27.0 27.5 26.5 64 0.0 2.9 176 10.1
13:00 - 13:30 27.6 28.1 27.0 62 0.0 3.6 193 11.9
13:30 - 14:00 26.4 26.8 25.7 65 0.0 4.0 236 12.6
14:00 - 14:30 22.6 25.3 21.2 74 0.0 9.0 154 22.0
14:30 - 15:00 22.0 22.7 21.6 73 0.0 9.4 119 15.5
15:00 - 15:30 22.6 23.2 22.4 72 0.0 4.7 107 14.8
15:30 - 16:00 24.2 24.6 23.4 69 0.0 3.6 153 8.6
16:00 - 16:30 24.0 24.2 23.7 75 0.0 3.6 152 9.7
16:30 - 17:00 23.6 23.8 23.4 76 0.0 5.8 133 16.2
17:00 - 17:30 23.0 23.4 22.5 79 0.0 5.8 148 14.4
17:30 - 18:00 22.2 22.5 22.0 81 0.0 6.1 128 14.4
18:00 - 18:30 22.0 22.0 21.9 83 0.0 4.7 144 11.5
18:30 - 19:00 21.6 21.9 21.5 85 0.0 3.2 130 8.6
19:00 - 19:30 21.5 21.8 21.0 85 0.0 2.2 218 7.6
19:30 - 20:00 20.6 21.0 20.4 90 0.0 0.4 44 2.9
20:00 - 20:30 20.7 21.1 20.4 90 0.0 6.5 116 19.1
20:30 - 21:00 21.0 21.2 20.7 86 0.0 4.7 144 16.9
21:00 - 21:30 20.5 20.7 20.3 89 0.0 1.1 123 5.0

Les dades en taronja només han passat un control de qualitat automàtic. Resta pendent la seva validació definitiva.